createdAt,value
2018-11-03T00:00:56.441Z,10.40
2018-11-03T00:03:31.521Z,12.47
2018-11-03T00:06:06.478Z,12.33
2018-11-03T00:08:41.408Z,10.50
2018-11-03T00:11:17.930Z,10.20
2018-11-03T00:13:53.082Z,11.23
2018-11-03T00:16:28.418Z,10.57
2018-11-03T00:19:03.355Z,11.83
2018-11-03T00:21:38.331Z,11.60
2018-11-03T00:24:13.446Z,11.47
2018-11-03T00:26:48.186Z,11.37
2018-11-03T00:29:23.940Z,11.53
2018-11-03T00:31:59.057Z,11.87
2018-11-03T00:34:34.396Z,11.23
2018-11-03T00:37:09.114Z,11.60
2018-11-03T00:39:44.065Z,11.53
2018-11-03T00:42:18.703Z,12.07
2018-11-03T00:44:53.426Z,11.73
2018-11-03T00:47:28.389Z,11.27
2018-11-03T00:50:03.286Z,13.20
2018-11-03T00:52:37.970Z,11.60
2018-11-03T00:55:13.103Z,11.23
2018-11-03T00:57:47.880Z,10.97
2018-11-03T01:00:22.910Z,11.30
2018-11-03T01:02:57.750Z,12.07
2018-11-03T01:05:32.977Z,11.83
2018-11-03T01:08:08.541Z,11.60
2018-11-03T01:10:43.708Z,11.37
2018-11-03T01:13:18.616Z,10.67
2018-11-03T01:15:54.345Z,10.80
2018-11-03T01:18:29.275Z,11.17
2018-11-03T01:21:04.365Z,10.80
2018-11-03T01:23:39.484Z,11.70
2018-11-03T01:26:14.370Z,10.87
2018-11-03T01:28:49.132Z,11.57
2018-11-03T01:31:24.161Z,11.10
2018-11-03T01:34:00.149Z,10.60
2018-11-03T01:36:35.160Z,10.07
2018-11-03T01:39:11.614Z,11.20
2018-11-03T01:41:47.022Z,12.40
2018-11-03T01:44:22.030Z,11.97
2018-11-03T01:46:58.366Z,11.50
2018-11-03T01:49:33.210Z,11.33
2018-11-03T01:52:07.882Z,10.53
2018-11-03T01:54:43.548Z,10.43
2018-11-03T01:57:18.768Z,10.17
2018-11-03T01:59:53.438Z,11.33
2018-11-03T02:02:29.127Z,11.77
2018-11-03T02:05:04.442Z,12.20
2018-11-03T02:07:39.746Z,12.00
2018-11-03T02:10:14.449Z,11.50
2018-11-03T02:12:49.191Z,11.07
2018-11-03T02:15:23.979Z,11.93
2018-11-03T02:17:58.743Z,11.73
2018-11-03T02:20:33.645Z,10.23
2018-11-03T02:23:08.615Z,11.20
2018-11-03T02:25:44.723Z,11.97
2018-11-03T02:28:19.810Z,11.20
2018-11-03T02:30:55.300Z,11.07
2018-11-03T02:33:30.752Z,11.20
2018-11-03T02:36:05.949Z,14.50
2018-11-03T02:38:40.822Z,14.73
2018-11-03T02:41:15.856Z,14.73
2018-11-03T02:43:50.482Z,14.27
2018-11-03T02:46:25.547Z,14.63
2018-11-03T02:49:00.678Z,13.67
2018-11-03T02:51:36.074Z,15.00
2018-11-03T02:54:11.276Z,14.37
2018-11-03T02:56:46.298Z,14.77
2018-11-03T02:59:21.069Z,14.37
2018-11-03T03:01:56.051Z,16.20
2018-11-03T03:04:30.846Z,16.20
2018-11-03T03:07:06.050Z,16.83
2018-11-03T03:09:41.926Z,15.50
2018-11-03T03:12:16.834Z,17.47
2018-11-03T03:14:52.485Z,17.00
2018-11-03T03:17:27.622Z,17.17
2018-11-03T03:20:02.370Z,19.07
2018-11-03T03:22:37.216Z,20.47
2018-11-03T03:25:12.386Z,22.53
2018-11-03T03:27:47.510Z,22.03
2018-11-03T03:30:22.706Z,22.23
2018-11-03T03:32:58.469Z,20.60
2018-11-03T03:35:33.282Z,20.27
2018-11-03T03:38:08.228Z,20.40
2018-11-03T03:40:42.990Z,20.83
2018-11-03T03:43:17.590Z,19.50
2018-11-03T03:45:52.230Z,20.30
2018-11-03T03:48:27.058Z,19.47
2018-11-03T03:51:01.967Z,18.87
2018-11-03T03:53:36.901Z,18.43
2018-11-03T03:56:11.657Z,18.27
2018-11-03T03:58:46.571Z,18.07
2018-11-03T04:01:21.761Z,17.63
2018-11-03T04:03:56.649Z,17.50
2018-11-03T04:06:31.638Z,16.73
2018-11-03T04:09:08.103Z,18.33
2018-11-03T04:11:43.187Z,18.60
2018-11-03T04:14:17.974Z,17.97
2018-11-03T04:16:52.863Z,19.67
2018-11-03T04:19:27.754Z,18.00
2018-11-03T04:22:02.757Z,16.80
2018-11-03T04:24:37.753Z,18.80
2018-11-03T04:27:12.718Z,18.83
2018-11-03T04:29:47.665Z,20.50
2018-11-03T04:32:22.669Z,19.27
2018-11-03T04:34:57.594Z,18.33
2018-11-03T04:37:32.642Z,20.20
2018-11-03T04:40:09.693Z,23.10
2018-11-03T04:42:45.110Z,22.57
2018-11-03T04:45:20.645Z,22.37
2018-11-03T04:47:55.545Z,23.00
2018-11-03T04:50:30.682Z,24.27
2018-11-03T04:53:06.368Z,24.47
2018-11-03T04:55:41.504Z,25.40
2018-11-03T04:58:16.969Z,26.93
2018-11-03T05:00:51.805Z,28.03
2018-11-03T05:03:26.993Z,31.40
2018-11-03T05:06:02.237Z,30.13
2018-11-03T05:08:37.474Z,30.30
2018-11-03T05:11:12.200Z,32.53
2018-11-03T05:13:47.125Z,33.80
2018-11-03T05:16:21.905Z,31.93
2018-11-03T05:18:57.005Z,32.60
2018-11-03T05:21:31.887Z,35.37
2018-11-03T05:24:06.975Z,30.70
2018-11-03T05:26:41.624Z,32.93
2018-11-03T05:29:16.611Z,34.30
2018-11-03T05:31:52.079Z,34.50
2018-11-03T05:34:26.854Z,34.77
2018-11-03T05:37:02.463Z,34.57
2018-11-03T05:39:37.143Z,33.53
2018-11-03T05:42:12.121Z,32.20
2018-11-03T05:44:47.470Z,33.37
2018-11-03T05:47:22.506Z,33.13
2018-11-03T05:49:57.446Z,31.73
2018-11-03T05:52:31.999Z,32.07
2018-11-03T05:55:08.154Z,35.07
2018-11-03T05:57:43.066Z,31.10
2018-11-03T06:00:18.015Z,31.67
2018-11-03T06:02:52.674Z,34.13
2018-11-03T06:05:27.774Z,32.93
2018-11-03T06:08:03.210Z,33.13
2018-11-03T06:10:38.074Z,31.70
2018-11-03T06:13:12.712Z,32.30
2018-11-03T06:15:47.726Z,30.83
2018-11-03T06:18:22.346Z,34.70
2018-11-03T06:20:57.429Z,33.57
2018-11-03T06:23:32.205Z,35.83
2018-11-03T06:26:07.659Z,40.58
2018-11-03T06:28:42.602Z,34.77
2018-11-03T06:31:17.646Z,35.90
2018-11-03T06:33:52.401Z,37.03
2018-11-03T06:36:27.466Z,35.63
2018-11-03T06:39:02.761Z,38.03
2018-11-03T06:41:37.649Z,42.10
2018-11-03T06:44:12.605Z,38.77
2018-11-03T06:46:47.704Z,36.13
2018-11-03T06:49:23.564Z,35.50
2018-11-03T06:51:58.552Z,35.27
2018-11-03T06:54:33.714Z,37.97
2018-11-03T06:57:08.393Z,37.37
2018-11-03T06:59:43.470Z,36.90
2018-11-03T07:02:18.306Z,40.33
2018-11-03T07:04:53.107Z,37.60
2018-11-03T07:07:28.074Z,39.83
2018-11-03T07:10:03.445Z,40.37
2018-11-03T07:12:38.723Z,38.57
2018-11-03T07:15:14.420Z,36.93
2018-11-03T07:17:50.590Z,38.33
2018-11-03T07:20:25.927Z,36.33
2018-11-03T07:23:01.889Z,41.87
2018-11-03T07:25:37.042Z,44.47
2018-11-03T07:28:11.665Z,42.63
2018-11-03T07:30:46.567Z,38.83
2018-11-03T07:33:21.969Z,47.43
2018-11-03T07:35:57.349Z,41.37
2018-11-03T07:38:32.212Z,45.13
2018-11-03T07:41:07.894Z,42.10
2018-11-03T07:43:43.898Z,39.70
2018-11-03T07:46:18.740Z,37.37
2018-11-03T07:48:53.578Z,40.37
2018-11-03T07:51:28.447Z,40.50
2018-11-03T07:54:03.575Z,39.00
2018-11-03T07:56:38.879Z,41.37
2018-11-03T07:59:13.836Z,38.73
2018-11-03T08:01:48.786Z,44.60
2018-11-03T08:04:23.887Z,42.10
2018-11-03T08:06:58.806Z,43.13
2018-11-03T08:09:33.667Z,45.07
2018-11-03T08:12:08.506Z,42.60
2018-11-03T08:14:43.330Z,38.67
2018-11-03T08:17:18.271Z,41.83
2018-11-03T08:19:53.056Z,37.97
2018-11-03T08:22:28.664Z,40.80
2018-11-03T08:25:04.408Z,41.67
2018-11-03T08:27:39.100Z,41.63
2018-11-03T08:30:15.509Z,40.33
2018-11-03T08:32:50.629Z,43.27
2018-11-03T08:35:25.607Z,40.53
2018-11-03T08:38:00.658Z,41.33
2018-11-03T08:40:35.366Z,44.97
2018-11-03T08:43:10.341Z,39.03
2018-11-03T08:45:45.306Z,39.40
2018-11-03T08:48:20.173Z,43.23
2018-11-03T08:50:55.150Z,39.17
2018-11-03T08:53:29.973Z,39.67
2018-11-03T08:56:05.411Z,40.37
2018-11-03T08:58:40.455Z,39.10
2018-11-03T09:01:15.458Z,42.57
2018-11-03T09:03:50.619Z,41.07
2018-11-03T09:06:25.355Z,39.47
2018-11-03T09:09:00.297Z,40.77
2018-11-03T09:11:42.002Z,39.13
2018-11-03T09:14:17.748Z,42.60
2018-11-03T09:16:52.878Z,37.23
2018-11-03T09:19:27.618Z,35.27
2018-11-03T09:22:02.558Z,36.37
2018-11-03T09:24:37.322Z,37.77
2018-11-03T09:27:12.421Z,37.03
2018-11-03T09:29:47.510Z,36.30
2018-11-03T09:32:22.172Z,39.63
2018-11-03T09:34:57.138Z,38.43
2018-11-03T09:37:32.890Z,37.40
2018-11-03T09:40:10.016Z,36.20
2018-11-03T09:42:46.429Z,34.33
2018-11-03T09:45:21.875Z,33.60
2018-11-03T09:47:56.754Z,36.23
2018-11-03T09:50:32.288Z,36.23
2018-11-03T09:53:07.218Z,38.37
2018-11-03T09:55:42.110Z,36.23
2018-11-03T09:58:17.204Z,34.70
2018-11-03T10:00:53.013Z,36.07
2018-11-03T10:03:27.906Z,32.67
2018-11-03T10:06:03.445Z,36.17
2018-11-03T10:08:39.344Z,31.87
2018-11-03T10:11:14.767Z,31.93
2018-11-03T10:13:49.496Z,33.97
2018-11-03T10:16:24.629Z,33.83
2018-11-03T10:18:59.649Z,32.83
2018-11-03T10:21:34.795Z,31.90
2018-11-03T10:24:09.844Z,29.33
2018-11-03T10:26:44.525Z,33.50
2018-11-03T10:29:19.320Z,30.80
2018-11-03T10:31:54.134Z,30.63
2018-11-03T10:34:29.116Z,32.63
2018-11-03T10:37:04.305Z,30.60
2018-11-03T10:39:39.090Z,28.53
2018-11-03T10:42:15.227Z,30.60
2018-11-03T10:44:50.451Z,28.73
2018-11-03T10:47:25.241Z,28.73
2018-11-03T10:50:00.589Z,28.03
2018-11-03T10:52:35.184Z,27.83
2018-11-03T10:55:12.125Z,26.83
2018-11-03T10:57:47.474Z,26.30
2018-11-03T11:00:27.803Z,27.37
2018-11-03T11:03:08.158Z,27.83
2018-11-03T11:05:48.134Z,25.03
2018-11-03T11:08:28.718Z,24.43
2018-11-03T11:11:08.810Z,24.23
2018-11-03T11:13:44.358Z,24.57
2018-11-03T11:16:20.535Z,24.33
2018-11-03T11:18:55.563Z,24.37
2018-11-03T11:21:30.385Z,25.10
2018-11-03T11:24:05.855Z,22.80
2018-11-03T11:26:41.029Z,25.50
2018-11-03T11:29:16.105Z,24.60
2018-11-03T11:31:51.412Z,22.67
2018-11-03T11:34:26.907Z,22.50
2018-11-03T11:37:01.763Z,22.27
2018-11-03T11:39:37.427Z,23.93
2018-11-03T11:42:12.664Z,22.53
2018-11-03T11:44:47.468Z,22.20
2018-11-03T11:47:22.523Z,22.57
2018-11-03T11:49:57.272Z,23.43
2018-11-03T11:52:32.271Z,22.43
2018-11-03T11:55:07.777Z,22.90
2018-11-03T11:57:42.857Z,22.10
2018-11-03T12:00:18.629Z,20.07
2018-11-03T12:02:53.849Z,20.55
2018-11-03T12:05:29.264Z,20.32
2018-11-03T12:08:04.652Z,18.87
2018-11-03T12:10:40.293Z,18.17
2018-11-03T12:13:15.749Z,18.05
2018-11-03T12:15:51.246Z,18.17
2018-11-03T12:18:26.720Z,19.62
2018-11-03T12:21:02.224Z,21.10
2018-11-03T12:23:37.525Z,19.07
2018-11-03T12:26:13.006Z,19.42
2018-11-03T12:28:48.635Z,18.67
2018-11-03T12:31:24.130Z,18.65
2018-11-03T12:33:59.544Z,19.90
2018-11-03T12:36:35.790Z,19.55
2018-11-03T12:39:11.550Z,21.57
2018-11-03T12:41:46.914Z,18.15
2018-11-03T12:44:23.057Z,18.92
2018-11-03T12:46:58.356Z,18.57
2018-11-03T12:49:34.240Z,18.67
2018-11-03T12:52:09.907Z,18.62
2018-11-03T12:54:45.660Z,20.27
2018-11-03T12:57:21.645Z,20.45
2018-11-03T12:59:57.233Z,17.98
2018-11-03T13:02:32.587Z,18.02
2018-11-03T13:05:08.301Z,20.20
2018-11-03T13:07:45.043Z,21.35
2018-11-03T13:10:20.010Z,20.75
2018-11-03T13:12:54.811Z,20.55
2018-11-03T13:15:30.319Z,18.77
2018-11-03T13:18:06.341Z,18.82
2018-11-03T13:20:41.898Z,19.65
2018-11-03T13:23:17.322Z,19.70
2018-11-03T13:25:53.298Z,19.23
2018-11-03T13:28:28.534Z,21.15
2018-11-03T13:31:04.009Z,21.65
2018-11-03T13:33:39.221Z,25.40
2018-11-03T13:36:14.819Z,24.25
2018-11-03T13:38:50.731Z,22.75
2018-11-03T13:41:26.627Z,22.95
2018-11-03T13:44:01.359Z,24.73
2018-11-03T13:46:36.124Z,22.53
2018-11-03T13:49:10.941Z,23.47
2018-11-03T13:51:46.580Z,23.50
2018-11-03T13:54:21.178Z,23.57
2018-11-03T13:56:56.195Z,22.77
2018-11-03T13:59:31.129Z,23.20
2018-11-03T14:02:07.100Z,23.53
2018-11-03T14:04:42.254Z,23.20
2018-11-03T14:07:17.146Z,22.67
2018-11-03T14:09:51.921Z,22.50
2018-11-03T14:12:27.404Z,23.87
2018-11-03T14:15:03.023Z,22.37
2018-11-03T14:17:38.342Z,22.57
2018-11-03T14:20:15.018Z,23.03
2018-11-03T14:22:49.738Z,22.33
2018-11-03T14:25:24.494Z,22.53
2018-11-03T14:27:59.860Z,23.93
2018-11-03T14:30:34.967Z,22.40
2018-11-03T14:33:09.907Z,21.97
2018-11-03T14:35:44.785Z,22.27
2018-11-03T14:38:19.701Z,23.20
2018-11-03T14:40:54.439Z,22.90
2018-11-03T14:43:29.549Z,22.57
2018-11-03T14:46:04.708Z,23.10
2018-11-03T14:48:40.179Z,22.50
2018-11-03T14:51:15.153Z,21.57
2018-11-03T14:53:50.701Z,23.13
2018-11-03T14:56:26.211Z,22.37
2018-11-03T14:59:01.216Z,24.20
2018-11-03T15:01:36.250Z,23.97
2018-11-03T15:04:11.750Z,22.20
2018-11-03T15:06:46.676Z,22.33
2018-11-03T15:09:22.306Z,22.10
2018-11-03T15:11:57.076Z,22.70
2018-11-03T15:14:32.882Z,20.50
2018-11-03T15:17:08.259Z,21.10
2018-11-03T15:19:43.260Z,20.80
2018-11-03T15:22:19.140Z,21.93
2018-11-03T15:24:54.002Z,21.77
2018-11-03T15:27:29.038Z,21.63
2018-11-03T15:30:04.352Z,23.10
2018-11-03T15:32:39.060Z,21.43
2018-11-03T15:35:14.076Z,20.63
2018-11-03T15:37:48.887Z,23.73
2018-11-03T15:40:23.768Z,22.53
2018-11-03T15:42:59.126Z,22.57
2018-11-03T15:45:33.926Z,23.20
2018-11-03T15:48:08.817Z,23.03
2018-11-03T15:50:48.529Z,23.17
2018-11-03T15:53:23.356Z,23.10
2018-11-03T15:55:58.266Z,24.17
2018-11-03T15:58:33.348Z,22.07
2018-11-03T16:01:08.667Z,34.37
2018-11-03T16:03:43.398Z,29.43
2018-11-03T16:06:18.234Z,23.73
2018-11-03T16:08:53.266Z,21.47
2018-11-03T16:11:28.158Z,21.23
2018-11-03T16:14:03.850Z,21.13
2018-11-03T16:16:39.439Z,20.97
2018-11-03T16:19:14.229Z,23.23
2018-11-03T16:21:49.258Z,22.20
2018-11-03T16:24:24.083Z,24.37
2018-11-03T16:26:58.861Z,21.77
2018-11-03T16:29:33.776Z,19.10
2018-11-03T16:32:08.705Z,19.93
2018-11-03T16:34:43.690Z,18.17
2018-11-03T16:37:18.583Z,19.37
2018-11-03T16:39:53.318Z,22.27
2018-11-03T16:42:28.088Z,20.43
2018-11-03T16:45:03.355Z,19.20
2018-11-03T16:47:38.432Z,19.17
2018-11-03T16:50:14.487Z,20.57
2018-11-03T16:52:49.330Z,22.73
2018-11-03T16:55:24.065Z,20.80
2018-11-03T16:57:59.555Z,21.07
2018-11-03T17:00:35.283Z,21.53
2018-11-03T17:03:10.113Z,21.40
2018-11-03T17:05:45.031Z,22.23
2018-11-03T17:08:20.019Z,21.57
2018-11-03T17:10:54.926Z,21.23
2018-11-03T17:13:29.746Z,20.80
2018-11-03T17:16:05.682Z,20.23
2018-11-03T17:18:40.565Z,22.23
2018-11-03T17:21:15.675Z,22.30
2018-11-03T17:23:50.529Z,21.60
2018-11-03T17:26:25.391Z,25.00
2018-11-03T17:29:00.105Z,24.27
2018-11-03T17:31:36.131Z,21.00
2018-11-03T17:34:11.016Z,21.70
2018-11-03T17:36:46.006Z,19.87
2018-11-03T17:39:20.827Z,22.53
2018-11-03T17:41:55.461Z,20.83
2018-11-03T17:44:30.296Z,27.37
2018-11-03T17:47:05.971Z,30.47
2018-11-03T17:49:40.986Z,26.63
2018-11-03T17:52:16.399Z,29.53
2018-11-03T17:54:51.555Z,29.03
2018-11-03T17:57:26.877Z,28.53
2018-11-03T18:00:01.677Z,28.10
2018-11-03T18:02:36.566Z,29.40
2018-11-03T18:05:11.277Z,26.57
2018-11-03T18:07:46.026Z,25.00
2018-11-03T18:10:21.229Z,27.93
2018-11-03T18:12:56.183Z,25.57
2018-11-03T18:15:31.162Z,27.67
2018-11-03T18:18:06.281Z,24.37
2018-11-03T18:20:41.543Z,21.43
2018-11-03T18:23:16.361Z,21.30
2018-11-03T18:25:51.075Z,20.13
2018-11-03T18:28:26.084Z,19.10
2018-11-03T18:31:01.083Z,18.93
2018-11-03T18:33:36.117Z,18.93
2018-11-03T18:36:11.223Z,23.53
2018-11-03T18:38:46.871Z,19.77
2018-11-03T18:41:21.839Z,22.90
2018-11-03T18:43:56.742Z,20.50
2018-11-03T18:46:31.706Z,18.90
2018-11-03T18:49:07.562Z,18.87
2018-11-03T18:51:42.870Z,18.70
2018-11-03T18:54:18.209Z,21.03
2018-11-03T18:56:53.065Z,22.10
2018-11-03T18:59:28.131Z,19.43
2018-11-03T19:02:02.855Z,19.23
2018-11-03T19:04:38.054Z,23.32
2018-11-03T19:07:13.029Z,23.73
2018-11-03T19:09:47.974Z,23.12
2018-11-03T19:12:23.479Z,23.25
2018-11-03T19:14:58.524Z,21.80
2018-11-03T19:17:33.720Z,22.67
2018-11-03T19:20:11.277Z,22.90
2018-11-03T19:22:46.814Z,22.60
2018-11-03T19:25:22.035Z,21.70
2018-11-03T19:27:56.903Z,23.15
2018-11-03T19:30:32.041Z,22.27
2018-11-03T19:33:06.943Z,22.60
2018-11-03T19:35:42.357Z,24.80
2018-11-03T19:38:18.416Z,22.85
2018-11-03T19:40:53.230Z,22.97
2018-11-03T19:43:28.234Z,21.85
2018-11-03T19:46:03.521Z,22.13
2018-11-03T19:48:38.432Z,21.20
2018-11-03T19:51:13.515Z,22.02
2018-11-03T19:53:48.742Z,21.77
2018-11-03T19:56:23.543Z,21.67
2018-11-03T19:58:58.437Z,20.57
2018-11-03T20:01:33.575Z,21.40
2018-11-03T20:04:08.578Z,21.30
2018-11-03T20:06:43.479Z,22.60
2018-11-03T20:09:18.746Z,22.42
2018-11-03T20:11:53.533Z,21.55
2018-11-03T20:14:28.762Z,22.37
2018-11-03T20:17:04.416Z,23.70
2018-11-03T20:19:39.737Z,23.10
2018-11-03T20:22:15.004Z,23.15
2018-11-03T20:24:50.085Z,22.70
2018-11-03T20:27:25.133Z,21.87
2018-11-03T20:30:00.657Z,21.17
2018-11-03T20:32:35.703Z,22.25
2018-11-03T20:35:10.723Z,21.00
2018-11-03T20:37:45.781Z,20.45
2018-11-03T20:40:21.288Z,20.95
2018-11-03T20:42:56.184Z,20.37
2018-11-03T20:45:31.164Z,21.65
2018-11-03T20:48:06.697Z,21.20
2018-11-03T20:50:41.833Z,21.25
2018-11-03T20:53:16.937Z,21.52
2018-11-03T20:55:52.253Z,20.20
2018-11-03T20:58:28.161Z,20.90
2018-11-03T21:01:03.566Z,21.23
2018-11-03T21:03:38.348Z,20.02
2018-11-03T21:06:13.943Z,20.37
2018-11-03T21:08:49.807Z,20.92
2018-11-03T21:11:25.858Z,21.23
2018-11-03T21:14:01.204Z,20.95
2018-11-03T21:16:36.291Z,21.60
2018-11-03T21:19:11.586Z,22.40
2018-11-03T21:21:47.853Z,21.68
2018-11-03T21:24:22.981Z,22.20
2018-11-03T21:26:58.147Z,21.80
2018-11-03T21:29:33.986Z,21.40
2018-11-03T21:32:10.184Z,21.52
2018-11-03T21:34:46.085Z,20.08
2018-11-03T21:37:20.773Z,19.67
2018-11-03T21:39:56.388Z,20.92
2018-11-03T21:42:31.509Z,21.65
2018-11-03T21:45:07.857Z,21.13
2018-11-03T21:47:42.719Z,21.80
2018-11-03T21:50:18.002Z,22.67
2018-11-03T21:52:52.856Z,21.17
2018-11-03T21:55:28.049Z,21.23
2018-11-03T21:58:03.050Z,22.45
2018-11-03T22:00:37.962Z,21.12
2018-11-03T22:03:13.045Z,21.17
2018-11-03T22:05:48.179Z,21.12
2018-11-03T22:08:22.989Z,20.45
2018-11-03T22:10:58.547Z,20.15
2018-11-03T22:13:33.367Z,20.47
2018-11-03T22:16:08.380Z,20.70
2018-11-03T22:18:43.346Z,21.00
2018-11-03T22:21:18.356Z,22.03
2018-11-03T22:23:53.406Z,21.87
2018-11-03T22:26:28.791Z,20.95
2018-11-03T22:29:03.842Z,20.68
2018-11-03T22:31:39.015Z,21.23
2018-11-03T22:34:14.105Z,21.10
2018-11-03T22:36:50.026Z,20.48
2018-11-03T22:39:25.205Z,21.25
2018-11-03T22:42:00.718Z,21.05
2018-11-03T22:44:36.073Z,20.32
2018-11-03T22:47:11.674Z,20.05
2018-11-03T22:49:47.862Z,19.73
2018-11-03T22:52:22.682Z,21.67
2018-11-03T22:54:57.667Z,21.65
2018-11-03T22:57:32.909Z,22.73
2018-11-03T23:00:11.234Z,21.87
2018-11-03T23:02:46.869Z,26.70
2018-11-03T23:05:21.534Z,23.90
2018-11-03T23:07:56.729Z,24.25
2018-11-03T23:10:31.797Z,23.05
2018-11-03T23:13:07.686Z,21.15
2018-11-03T23:15:42.796Z,20.23
2018-11-03T23:18:17.935Z,22.20
2018-11-03T23:20:52.651Z,20.60
2018-11-03T23:23:27.847Z,20.75
2018-11-03T23:26:02.826Z,25.48
2018-11-03T23:28:37.664Z,21.25
2018-11-03T23:31:13.431Z,23.90
2018-11-03T23:33:48.659Z,24.43
2018-11-03T23:36:23.816Z,25.37
2018-11-03T23:38:59.647Z,25.70
2018-11-03T23:41:34.593Z,25.45
2018-11-03T23:44:10.628Z,24.35
2018-11-03T23:46:45.754Z,29.37
2018-11-03T23:49:21.437Z,27.65
2018-11-03T23:51:56.278Z,27.47
2018-11-03T23:54:31.047Z,25.12
2018-11-03T23:57:06.435Z,25.62
2018-11-03T23:59:41.770Z,24.85
